Time;durP1;ratioP1;P1;durP2;ratioP2;P2;SDS_P1;SDS_P2;PMS_P1;PMS_P2;Temp;Humidity;BMP_temperature;BMP_pressure;BME280_temperature;BME280_humidity;BME280_pressure;Samples;Min_cycle;Max_cycle;Signal;HPM_P1;HPM_P2
2021/12/13 00:00:49;;;;;;;120.60;47.78;;;;;;;-4.46;100.00;99904.39;3924120;89;43889;-72
2021/12/13 00:07:04;;;;;;;112.32;46.75;;;;;;;-4.46;100.00;99893.43;3909579;89;44692;-72
2021/12/13 00:13:09;;;;;;;;;;;;;;;-4.54;100.00;99914.97;3900214;90;28580;-72
2021/12/13 00:19:19;;;;;;;119.77;48.60;;;;;;;-4.70;100.00;99905.23;3898698;90;20600;-72
2021/12/13 00:25:25;;;;;;;122.05;50.48;;;;;;;-4.65;100.00;99900.02;3891947;91;44656;-72
2021/12/13 00:32:02;;;;;;;114.77;47.85;;;;;;;-4.53;100.00;99902.23;3891112;91;43628;-72
2021/12/13 00:38:05;;;;;;;134.63;54.53;;;;;;;-4.56;100.00;99897.68;3891864;91;43248;-73
2021/12/13 00:44:27;;;;;;;131.20;53.13;;;;;;;-4.47;100.00;99903.58;3894210;90;43996;-72
2021/12/13 00:50:33;;;;;;;134.47;50.10;;;;;;;-4.45;100.00;99901.66;3894358;90;44296;-73
2021/12/13 00:57:00;;;;;;;113.08;46.50;;;;;;;-4.63;100.00;99902.05;3890757;91;44617;-73
2021/12/13 01:03:31;;;;;;;122.28;45.78;;;;;;;-4.77;100.00;99899.60;3896589;91;43945;-73
2021/12/13 01:10:14;;;;;;;118.85;46.00;;;;;;;-4.85;100.00;99899.31;3898528;88;43964;-73
2021/12/13 01:28:50;;;;;;;111.62;45.00;;;;;;;-5.01;100.00;99908.75;3926747;90;44246;-72
2021/12/13 01:34:51;;;;;;;114.72;46.63;;;;;;;-5.14;100.00;99907.00;3926493;89;44291;-72
2021/12/13 01:40:53;;;;;;;109.48;44.63;;;;;;;-5.11;100.00;99911.17;3923933;89;44315;-73
2021/12/13 01:47:00;;;;;;;110.52;44.20;;;;;;;-5.18;100.00;99912.08;3927926;90;44309;-72
2021/12/13 01:53:02;;;;;;;131.22;47.17;;;;;;;-5.18;100.00;99909.00;3925421;90;44311;-73
2021/12/13 01:59:27;;;;;;;127.95;47.85;;;;;;;-5.19;100.00;99906.47;3921580;90;44406;-72
2021/12/13 02:05:26;;;;;;;120.37;49.90;;;;;;;-5.16;100.00;99903.63;3916599;88;44612;-73
2021/12/13 02:11:30;;;;;;;120.75;48.38;;;;;;;-5.15;100.00;99893.53;3865016;92;44287;-72
2021/12/13 02:17:33;;;;;;;120.90;48.40;;;;;;;-5.01;100.00;99902.19;3933802;90;44268;-71
2021/12/13 02:23:40;;;;;;;112.25;45.23;;;;;;;-5.06;100.00;99867.11;3932619;90;44623;-72
2021/12/13 02:29:43;;;;;;;109.80;44.80;;;;;;;-5.22;100.00;99851.63;3914695;90;44545;-72
2021/12/13 02:35:50;;;;;;;120.05;47.20;;;;;;;-5.26;100.00;99852.78;3900016;90;43958;-72
2021/12/13 02:41:53;;;;;;;111.80;44.03;;;;;;;-5.26;100.00;99855.41;3915262;90;44648;-71
2021/12/13 02:48:00;;;;;;;114.03;45.35;;;;;;;-5.28;100.00;99867.79;3902816;90;44624;-71
2021/12/13 02:54:16;;;;;;;121.95;47.95;;;;;;;-5.29;100.00;99866.97;3902583;90;43950;-71
2021/12/13 03:00:34;;;;;;;114.05;44.53;;;;;;;-5.25;100.00;99860.55;3903018;90;44656;-71
2021/12/13 03:06:44;;;;;;;115.55;45.65;;;;;;;-5.34;100.00;99867.75;3896160;90;43915;-72
2021/12/13 03:12:46;;;;;;;122.10;47.98;;;;;;;-5.41;100.00;99868.66;3882548;90;44660;-72
2021/12/13 03:19:11;;;;;;;133.55;53.05;;;;;;;-5.28;100.00;99869.09;3881286;90;43615;-72
2021/12/13 03:25:35;;;;;;;122.72;51.15;;;;;;;-5.16;100.00;99873.47;3882158;90;28550;-72
2021/12/13 03:31:44;;;;;;;132.27;51.45;;;;;;;-5.24;100.00;99882.38;3882288;90;43651;-76
2021/12/13 03:37:58;;;;;;;131.85;50.80;;;;;;;-5.21;100.00;99882.15;3887874;90;43862;-76
2021/12/13 03:44:22;;;;;;;130.35;51.30;;;;;;;-5.25;100.00;99882.84;3916688;90;43420;-75
2021/12/13 03:50:32;;;;;;;125.27;48.17;;;;;;;-5.35;100.00;99885.73;3918052;90;28577;-75
2021/12/13 03:56:39;;;;;;;120.35;49.08;;;;;;;-5.45;100.00;99892.11;4009700;88;44331;-75
2021/12/13 04:02:41;;;;;;;118.30;47.78;;;;;;;-5.45;100.00;99897.34;3975509;88;43955;-74
2021/12/13 04:08:53;;;;;;;125.55;49.05;;;;;;;-5.50;100.00;99891.57;4014451;88;44625;-75
2021/12/13 04:15:01;;;;;;;119.53;48.65;;;;;;;-5.67;100.00;99900.59;4004005;88;43943;-76
2021/12/13 04:21:05;;;;;;;119.57;48.15;;;;;;;-5.69;100.00;99915.10;4013479;88;43888;-76
2021/12/13 04:27:18;;;;;;;122.13;48.15;;;;;;;-5.76;100.00;99910.76;4029939;88;43975;-76
2021/12/13 04:33:33;;;;;;;114.72;45.60;;;;;;;-5.84;100.00;99901.75;3998852;88;44621;-76
2021/12/13 04:39:37;;;;;;;116.60;46.30;;;;;;;-5.81;100.00;99910.25;4030909;88;43899;-75
2021/12/13 04:45:43;;;;;;;113.28;44.98;;;;;;;-5.81;100.00;99919.41;3983625;88;44646;-75
2021/12/13 04:52:01;;;;;;;111.88;45.35;;;;;;;-5.87;100.00;99914.58;3967202;90;44449;-75
2021/12/13 04:58:08;;;;;;;112.03;44.75;;;;;;;-5.97;100.00;99918.30;3968968;88;44622;-75
2021/12/13 05:04:11;;;;;;;105.52;43.95;;;;;;;-5.97;100.00;99911.75;3964803;90;44255;-74
2021/12/13 05:10:13;;;;;;;104.05;43.78;;;;;;;-5.97;100.00;99908.28;3974834;89;44284;-73
2021/12/13 05:16:19;;;;;;;105.63;42.17;;;;;;;-5.96;100.00;99903.41;3957072;90;44300;-76
2021/12/13 05:22:23;;;;;;;101.55;40.48;;;;;;;-5.89;100.00;99899.45;4025126;88;43997;-73
2021/12/13 05:28:39;;;;;;;97.70;40.75;;;;;;;-5.89;100.00;99900.75;4002959;89;44081;-74
2021/12/13 05:34:49;;;;;;;103.27;39.65;;;;;;;-5.99;100.00;99914.09;4027528;87;43366;-73
2021/12/13 05:40:51;;;;;;;90.55;39.10;;;;;;;-6.01;100.00;99924.66;4003442;88;44443;-73
2021/12/13 05:46:54;;;;;;;97.60;38.35;;;;;;;-6.07;100.00;99931.67;4009815;87;42881;-74
2021/12/13 05:53:03;;;;;;;95.35;37.98;;;;;;;-6.20;100.00;99936.38;3951474;89;44481;-73
2021/12/13 05:59:25;;;;;;;104.25;42.13;;;;;;;-6.16;100.00;99940.95;3873825;91;44301;-73
2021/12/13 06:05:41;;;;;;;85.55;36.63;;;;;;;-6.09;100.00;99945.31;3967652;89;44536;-72
2021/12/13 06:11:46;;;;;;;89.10;36.68;;;;;;;-6.11;100.00;99966.83;3983642;88;44526;-72
2021/12/13 06:18:05;;;;;;;90.72;36.70;;;;;;;-6.18;100.00;99963.33;3976327;89;28564;-72
2021/12/13 06:24:10;;;;;;;93.35;37.80;;;;;;;-6.15;100.00;99962.26;3980583;89;44480;-74
2021/12/13 06:30:18;;;;;;;;;;;;;;;-6.18;100.00;99967.25;4005091;89;28537;-72
2021/12/13 06:36:33;;;;;;;76.72;32.40;;;;;;;-6.30;100.00;99985.03;3993727;89;44101;-73
2021/12/13 06:42:35;;;;;;;83.37;34.80;;;;;;;-6.21;100.00;99991.48;3962655;89;43104;-71
2021/12/13 06:48:48;;;;;;;84.70;35.83;;;;;;;-6.19;100.00;99987.83;3987692;89;44175;-70
2021/12/13 06:54:57;;;;;;;95.67;36.93;;;;;;;-6.20;100.00;100001.83;3997846;88;44506;-72
2021/12/13 07:01:04;;;;;;;80.62;34.48;;;;;;;-6.14;100.00;100007.62;4007224;88;43187;-74
2021/12/13 07:07:12;;;;;;;92.53;34.63;;;;;;;-6.07;100.00;100014.14;3981981;88;44146;-72
2021/12/13 07:13:44;;;;;;;95.15;35.75;;;;;;;-5.93;100.00;100011.42;3982941;88;44472;-71
2021/12/13 07:19:48;;;;;;;93.37;34.80;;;;;;;-5.95;100.00;100015.93;3985107;88;44163;-71
2021/12/13 07:25:52;;;;;;;58.78;24.90;;;;;;;-5.81;100.00;100020.72;4006222;88;28532;-73
2021/12/13 07:32:23;;;;;;;92.50;33.98;;;;;;;-5.62;100.00;100026.91;4034889;87;28514;-73
2021/12/13 07:38:26;;;;;;;94.22;34.13;;;;;;;-5.48;100.00;100039.07;4011642;87;44125;-74
2021/12/13 07:44:47;;;;;;;88.78;34.67;;;;;;;-5.40;100.00;100042.02;3971379;89;44141;-74
2021/12/13 07:51:03;;;;;;;85.65;33.48;;;;;;;-5.12;100.00;100047.17;3976815;89;43234;-71
2021/12/13 07:57:16;;;;;;;79.17;32.00;;;;;;;-4.91;100.00;100050.94;4020125;87;42573;-75
2021/12/13 08:03:24;;;;;;;82.70;33.28;;;;;;;-4.81;100.00;100061.66;4055319;87;43110;-72
2021/12/13 08:09:29;;;;;;;78.00;32.58;;;;;;;-4.67;100.00;100059.84;4063202;87;42628;-73
2021/12/13 08:15:46;;;;;;;;;;;;;;;-4.56;100.00;100057.30;4039873;87;28537;-72
2021/12/13 08:21:56;;;;;;;78.02;35.10;;;;;;;-4.44;100.00;100058.23;3972132;89;43211;-72
2021/12/13 08:28:06;;;;;;;84.05;37.23;;;;;;;-4.26;100.00;100053.94;3993881;87;44120;-71
2021/12/13 08:34:16;;;;;;;101.87;39.70;;;;;;;-4.17;100.00;100060.30;4019304;87;43486;-73
2021/12/13 08:40:23;;;;;;;93.78;37.65;;;;;;;-4.08;100.00;100060.95;4032670;87;44438;-74
2021/12/13 08:46:36;;;;;;;93.05;36.85;;;;;;;-3.97;100.00;100070.67;4052699;87;44427;-72
2021/12/13 08:52:42;;;;;;;85.42;36.58;;;;;;;-3.80;100.00;100076.86;4009179;88;44730;-73
2021/12/13 08:58:55;;;;;;;91.60;39.50;;;;;;;-3.53;100.00;100078.88;3974453;89;44486;-72
2021/12/13 09:05:08;;;;;;;96.20;41.58;;;;;;;-3.40;100.00;100078.80;3999921;87;43585;-73
2021/12/13 09:11:36;;;;;;;94.32;41.20;;;;;;;-3.34;100.00;100072.25;4031631;87;44468;-74
2021/12/13 09:17:41;;;;;;;97.35;41.42;;;;;;;-3.34;100.00;100076.19;3960326;89;43770;-74
2021/12/13 09:23:50;;;;;;;94.67;40.08;;;;;;;-3.30;100.00;100072.36;3985638;89;28540;-72
2021/12/13 09:30:03;;;;;;;96.30;40.88;;;;;;;-3.03;100.00;100064.66;3986071;88;42907;-72
2021/12/13 09:36:12;;;;;;;90.15;39.27;;;;;;;-2.95;100.00;100068.36;3958965;88;44421;-73
2021/12/13 09:42:17;;;;;;;97.53;40.45;;;;;;;-2.75;100.00;100057.27;3960409;88;42912;-71
2021/12/13 09:48:23;;;;;;;89.43;39.83;;;;;;;-2.67;100.00;100046.48;3949097;88;44474;-73
2021/12/13 09:54:30;;;;;;;89.50;39.13;;;;;;;-2.52;100.00;100041.81;3966689;88;44510;-72
2021/12/13 10:00:41;;;;;;;88.95;40.45;;;;;;;-2.32;100.00;100036.75;3969863;88;44458;-71
2021/12/13 10:06:53;;;;;;;87.80;39.38;;;;;;;-2.30;100.00;100040.09;4001129;87;44475;-72
2021/12/13 10:13:03;;;;;;;91.65;38.85;;;;;;;-2.07;100.00;100037.40;3994784;88;44561;-71
2021/12/13 10:19:11;;;;;;;89.45;39.92;;;;;;;-2.07;100.00;100032.12;3996189;87;44503;-73
2021/12/13 10:25:18;;;;;;;95.17;39.78;;;;;;;-1.93;100.00;100036.28;3996179;87;44473;-73
2021/12/13 10:31:38;;;;;;;86.67;38.88;;;;;;;-1.73;100.00;100036.45;3909758;90;44305;-74
2021/12/13 10:37:45;;;;;;;89.83;41.05;;;;;;;-1.60;100.00;100044.19;3977979;88;44446;-72
2021/12/13 10:43:57;;;;;;;86.60;38.02;;;;;;;-1.40;100.00;100038.56;4000556;87;44481;-73
2021/12/13 10:50:04;;;;;;;83.78;39.30;;;;;;;-1.31;100.00;100029.02;4005943;88;44249;-71
2021/12/13 10:56:17;;;;;;;85.60;36.08;;;;;;;-1.23;100.00;100034.99;4016833;88;44183;-71
2021/12/13 11:02:23;;;;;;;84.07;37.28;;;;;;;-1.08;100.00;100029.72;4014243;88;44151;-74
2021/12/13 11:08:27;;;;;;;79.05;35.48;;;;;;;-0.95;100.00;100020.27;3997525;88;28591;-76
2021/12/13 11:14:30;;;;;;;66.77;29.15;;;;;;;-0.98;100.00;100023.18;4021414;87;44133;-72
2021/12/13 11:20:43;;;;;;;64.42;28.12;;;;;;;-0.83;100.00;100018.39;3994440;88;43436;-75
2021/12/13 11:26:47;;;;;;;66.15;27.55;;;;;;;-0.75;100.00;100013.75;4006949;88;28469;-75
2021/12/13 11:33:00;;;;;;;62.33;29.05;;;;;;;-0.65;100.00;100010.66;4007913;87;43379;-78
2021/12/13 11:39:29;;;;;;;61.00;28.32;;;;;;;-0.49;100.00;100003.55;3994025;87;43232;-74
2021/12/13 11:46:27;;;;;;;58.83;26.45;;;;;;;-0.47;100.00;100006.87;3988638;87;42911;-75
2021/12/13 11:53:14;;;;;;;57.10;26.15;;;;;;;-0.22;100.00;100015.27;3935007;89;43440;-74
2021/12/13 12:00:10;;;;;;;60.12;26.15;;;;;;;-0.16;100.00;100000.66;3943357;89;42884;-75
2021/12/13 12:06:51;;;;;;;60.03;26.52;;;;;;;-0.13;100.00;99989.83;3984902;88;28557;-74
2021/12/13 12:13:14;;;;;;;52.05;23.27;;;;;;;-0.02;100.00;99983.09;3992849;87;28601;-76
2021/12/13 12:19:24;;;;;;;43.05;19.87;;;;;;;0.17;100.00;99972.16;3991405;87;43723;-75
2021/12/13 12:25:29;;;;;;;43.10;17.85;;;;;;;0.30;100.00;99968.39;3989639;88;43793;-79
2021/12/13 12:31:38;;;;;;;36.17;14.63;;;;;;;0.28;100.00;99972.48;3992541;88;28516;-74
2021/12/13 12:38:11;;;;;;;28.10;13.15;;;;;;;0.32;100.00;99967.28;4000653;87;28588;-80
2021/12/13 12:44:20;;;;;;;31.35;13.68;;;;;;;0.41;100.00;99965.58;3993160;88;28482;-76
2021/12/13 12:50:30;;;;;;;26.70;12.43;;;;;;;0.43;100.00;99969.42;3988576;87;28544;-81
2021/12/13 12:56:48;;;;;;;24.70;11.43;;;;;;;0.47;100.00;99969.47;3959749;87;28566;-80
2021/12/13 13:02:50;;;;;;;39.63;13.18;;;;;;;0.46;100.00;99969.95;3968038;88;28533;-81
2021/12/13 13:08:55;;;;;;;27.90;13.10;;;;;;;0.47;100.00;99972.97;3986466;88;28534;-80
2021/12/13 13:15:14;;;;;;;24.67;13.03;;;;;;;0.37;100.00;99985.37;3968900;88;28521;-80
2021/12/13 13:21:18;;;;;;;28.98;13.75;;;;;;;0.36;100.00;99985.00;3987356;88;43384;-79
2021/12/13 13:27:23;;;;;;;34.45;15.35;;;;;;;0.43;100.00;99999.84;3983063;88;28533;-80
2021/12/13 13:33:45;;;;;;;85.72;21.10;;;;;;;0.33;100.00;99999.37;3974655;88;44145;-80
2021/12/13 13:39:52;;;;;;;46.08;17.10;;;;;;;0.21;100.00;100003.95;3972474;88;28537;-79
2021/12/13 13:45:55;;;;;;;69.65;20.65;;;;;;;0.19;100.00;100004.59;3985830;88;28548;-77
2021/12/13 13:51:56;;;;;;;51.15;22.58;;;;;;;0.16;100.00;100012.81;3967172;88;28538;-77
2021/12/13 13:58:03;;;;;;;46.35;19.40;;;;;;;0.13;100.00;100015.24;3971887;88;43750;-77
2021/12/13 14:04:33;;;;;;;49.03;20.65;;;;;;;0.00;100.00;100014.69;3961488;89;28472;-77
2021/12/13 14:10:35;;;;;;;43.80;20.52;;;;;;;-0.13;100.00;100022.88;3915297;90;28527;-77
2021/12/13 14:16:48;;;;;;;51.83;21.07;;;;;;;-0.31;100.00;100034.11;3916806;90;28530;-77
2021/12/13 14:22:54;;;;;;;60.63;23.10;;;;;;;-0.47;100.00;100033.77;3906078;90;28510;-79
2021/12/13 14:29:03;;;;;;;67.25;22.77;;;;;;;-0.54;100.00;100036.63;3922853;90;28560;-79
2021/12/13 14:35:25;;;;;;;56.95;24.45;;;;;;;-0.74;100.00;100033.41;3976340;88;44092;-79
2021/12/13 14:41:34;;;;;;;60.85;28.90;;;;;;;-0.89;100.00;100038.70;3962066;88;43412;-79
2021/12/13 14:47:41;;;;;;;61.18;27.17;;;;;;;-1.00;100.00;100049.70;3968551;89;28478;-79
2021/12/13 14:53:44;;;;;;;53.87;24.70;;;;;;;-1.13;100.00;100058.32;4003456;87;44070;-82
2021/12/13 14:59:53;;;;;;;50.08;23.73;;;;;;;-1.23;100.00;100060.88;3979942;88;44492;-80
2021/12/13 15:06:00;;;;;;;54.35;25.37;;;;;;;-1.34;100.00;100062.27;3939930;89;28524;-83
2021/12/13 15:12:13;;;;;;;50.45;23.40;;;;;;;-1.52;100.00;100077.83;3942438;88;43981;-77
2021/12/13 15:18:20;;;;;;;49.13;21.75;;;;;;;-1.63;100.00;100079.56;3952049;89;28480;-79
2021/12/13 15:24:24;;;;;;;44.90;21.20;;;;;;;-1.65;100.00;100088.55;3989716;87;43722;-79
2021/12/13 15:30:29;;;;;;;47.58;22.00;;;;;;;-1.76;100.00;100094.22;3921078;89;44454;-81
2021/12/13 15:36:31;;;;;;;34.27;15.43;;;;;;;-1.83;100.00;100102.26;3926553;89;28497;-77
2021/12/13 15:42:34;;;;;;;43.70;20.40;;;;;;;-1.87;100.00;100102.16;3940566;89;43818;-80
2021/12/13 15:55:05;;;;;;;46.18;21.27;;;;;;;-1.99;100.00;100103.52;3878102;90;43798;-78
2021/12/13 16:01:32;;;;;;;49.33;22.55;;;;;;;-2.02;100.00;100111.67;3842605;91;44500;-78
2021/12/13 16:07:34;;;;;;;51.58;23.02;;;;;;;-1.96;100.00;100109.03;3921557;90;43554;-78
2021/12/13 16:13:36;;;;;;;49.10;23.20;;;;;;;-2.03;100.00;100113.11;3939637;89;44483;-79
2021/12/13 16:20:02;;;;;;;55.38;25.30;;;;;;;-2.01;100.00;100118.63;3900080;91;43640;-78
2021/12/13 16:26:08;;;;;;;58.05;26.90;;;;;;;-2.06;100.00;100125.22;3931883;90;28613;-78
2021/12/13 16:32:11;;;;;;;60.92;28.25;;;;;;;-2.13;100.00;100121.74;3871732;90;28517;-79
2021/12/13 16:38:14;;;;;;;67.35;31.05;;;;;;;-2.17;100.00;100125.59;3924257;90;44166;-78
2021/12/13 16:44:21;;;;;;;73.75;31.87;;;;;;;-2.18;100.00;100129.19;3921267;90;44075;-80
2021/12/13 16:50:25;;;;;;;75.57;35.38;;;;;;;-2.28;100.00;100132.19;3924950;90;43220;-81
2021/12/13 16:56:27;;;;;;;78.07;35.75;;;;;;;-2.31;100.00;100130.62;3954000;89;43446;-77
2021/12/13 17:02:28;;;;;;;79.50;35.63;;;;;;;-2.31;100.00;100137.22;4015869;89;43509;-78
2021/12/13 17:08:39;;;;;;;79.00;36.68;;;;;;;-2.37;100.00;100139.00;3949680;88;43423;-80
2021/12/13 17:14:55;;;;;;;89.80;39.38;;;;;;;-2.49;100.00;100145.23;3980071;88;44449;-77
2021/12/13 17:21:14;;;;;;;74.82;32.83;;;;;;;-2.58;100.00;100150.24;3952881;89;44069;-77
2021/12/13 17:27:23;;;;;;;79.70;34.73;;;;;;;-2.69;100.00;100152.87;3997587;88;43093;-79
2021/12/13 17:33:37;;;;;;;79.00;34.88;;;;;;;-2.86;100.00;100159.42;4011410;88;43369;-77
2021/12/13 17:39:44;;;;;;;90.47;40.45;;;;;;;-2.96;100.00;100159.30;3989659;88;44431;-78
2021/12/13 17:46:03;;;;;;;90.60;39.35;;;;;;;-2.86;100.00;100162.91;3982473;88;44468;-81
2021/12/13 17:52:05;;;;;;;89.13;39.27;;;;;;;-2.88;100.00;100160.84;3995067;88;44456;-80
2021/12/13 17:58:20;;;;;;;94.55;38.58;;;;;;;-2.97;100.00;100164.17;4006513;88;44500;-79
2021/12/13 18:04:25;;;;;;;81.55;35.78;;;;;;;-2.91;100.00;100174.73;3949200;90;28519;-77
2021/12/13 18:10:32;;;;;;;81.55;36.50;;;;;;;-2.92;100.00;100180.47;3982793;88;28571;-79
2021/12/13 18:16:37;;;;;;;85.60;36.70;;;;;;;-2.90;100.00;100182.99;3984322;88;44333;-80
2021/12/13 18:22:42;;;;;;;;;;;;;;;-2.79;100.00;100176.44;3987820;88;28521;-81
2021/12/13 18:28:52;;;;;;;87.77;39.07;;;;;;;-2.75;100.00;100169.16;3997825;88;20190;-80
2021/12/13 18:34:53;;;;;;;96.90;42.70;;;;;;;-2.64;100.00;100171.80;3979693;88;43749;-79
2021/12/13 18:40:59;;;;;;;88.60;39.08;;;;;;;-2.54;100.00;100180.67;4017665;88;44441;-80
2021/12/13 18:47:10;;;;;;;114.62;50.43;;;;;;;-2.55;100.00;100182.95;3983045;88;43937;-78
2021/12/13 18:53:18;;;;;;;96.87;44.93;;;;;;;-2.38;100.00;100179.47;4005410;88;43841;-78
2021/12/13 18:59:25;;;;;;;99.92;46.13;;;;;;;-2.12;100.00;100180.56;4013004;88;44617;-78
2021/12/13 19:05:38;;;;;;;100.12;44.00;;;;;;;-2.20;100.00;100191.69;4015740;88;43903;-78
2021/12/13 19:11:51;;;;;;;98.97;44.30;;;;;;;-2.11;100.00;100194.10;3983520;88;43724;-78
2021/12/13 19:18:01;;;;;;;100.67;45.30;;;;;;;-2.16;100.00;100191.83;3977557;88;44159;-80
2021/12/13 19:24:17;;;;;;;108.42;45.65;;;;;;;-1.97;100.00;100199.61;4016602;88;44294;-79
2021/12/13 19:30:30;;;;;;;98.33;45.67;;;;;;;-1.83;100.00;100191.44;4012574;88;44700;-80
2021/12/13 19:36:34;;;;;;;100.75;44.70;;;;;;;-1.76;100.00;100187.83;4014093;88;44199;-79
2021/12/13 19:42:41;;;;;;;104.03;46.37;;;;;;;-1.63;100.00;100198.23;3985909;88;28476;-77
2021/12/13 19:48:54;;;;;;;104.55;48.98;;;;;;;-1.56;100.00;100195.94;4025124;88;44242;-78
2021/12/13 19:55:07;;;;;;;103.67;48.02;;;;;;;-1.51;100.00;100191.61;4015928;88;44258;-79
2021/12/13 20:01:19;;;;;;;106.27;48.23;;;;;;;-1.48;100.00;100188.25;3971608;88;44241;-81
2021/12/13 20:07:44;;;;;;;102.15;48.78;;;;;;;-1.43;100.00;100198.43;4006313;88;44282;-80
2021/12/13 20:14:01;;;;;;;106.72;49.25;;;;;;;-1.42;100.00;100189.05;4022702;88;28539;-76
2021/12/13 20:20:12;;;;;;;116.00;51.80;;;;;;;-1.38;100.00;100199.38;4004090;88;28970;-79
2021/12/13 20:26:18;;;;;;;115.52;50.88;;;;;;;-1.38;100.00;100204.16;4057693;88;43035;-79
2021/12/13 20:32:25;;;;;;;115.30;51.90;;;;;;;-1.32;100.00;100212.05;4004754;89;43541;-78
2021/12/13 20:38:32;;;;;;;114.95;53.45;;;;;;;-1.19;100.00;100198.23;4034696;88;28505;-79
2021/12/13 20:44:46;;;;;;;110.20;50.12;;;;;;;-1.28;100.00;100201.12;4029035;87;43829;-80
2021/12/13 20:50:56;;;;;;;124.45;53.48;;;;;;;-1.25;100.00;100193.45;3956948;89;44287;-77
2021/12/13 20:57:02;;;;;;;112.97;53.78;;;;;;;-1.22;100.00;100205.06;4043825;87;28650;-77
2021/12/13 21:03:09;;;;;;;115.62;52.05;;;;;;;-1.19;100.00;100196.91;4006924;88;28571;-75
2021/12/13 21:09:28;;;;;;;114.03;52.20;;;;;;;-1.17;100.00;100196.30;4018854;88;43640;-73
2021/12/13 21:15:40;;;;;;;135.97;60.28;;;;;;;-1.03;100.00;100191.67;3986996;88;44323;-76
2021/12/13 21:21:50;;;;;;;145.17;63.55;;;;;;;-0.91;100.00;100181.91;4036915;88;28479;-79
2021/12/13 21:28:20;;;;;;;148.15;62.90;;;;;;;-0.86;100.00;100188.94;3980546;88;44267;-72
2021/12/13 21:34:40;;;;;;;138.12;61.08;;;;;;;-0.81;100.00;100178.84;3989583;88;44672;-77
2021/12/13 21:40:53;;;;;;;141.35;62.70;;;;;;;-0.86;100.00;100171.31;3993034;88;44635;-74
2021/12/13 21:47:11;;;;;;;147.05;61.98;;;;;;;-0.99;100.00;100175.45;3998403;88;44635;-75
2021/12/13 21:53:25;;;;;;;153.27;66.57;;;;;;;-1.03;100.00;100179.80;3996598;88;43920;-75
2021/12/13 21:59:38;;;;;;;142.53;62.62;;;;;;;-1.09;100.00;100171.05;3992945;88;44634;-79
2021/12/13 22:05:45;;;;;;;148.93;64.97;;;;;;;-1.16;100.00;100176.00;3995579;88;28533;-79
2021/12/13 22:11:51;;;;;;;142.98;63.70;;;;;;;-1.21;100.00;100167.14;3992997;88;44777;-75
2021/12/13 22:18:15;;;;;;;140.40;62.50;;;;;;;-1.26;100.00;100173.30;3970147;88;44780;-75
2021/12/13 22:24:22;;;;;;;143.50;63.83;;;;;;;-1.26;100.00;100158.28;3981897;87;44641;-76
2021/12/13 22:30:38;;;;;;;142.80;62.95;;;;;;;-1.20;100.00;100178.05;3991021;87;44632;-76
2021/12/13 22:36:41;;;;;;;143.93;62.53;;;;;;;-1.18;100.00;100183.22;3945925;89;44655;-76
2021/12/13 22:43:00;;;;;;;144.40;61.83;;;;;;;-1.19;100.00;100173.16;3942378;89;44619;-76
2021/12/13 22:49:12;;;;;;;144.55;62.43;;;;;;;-1.20;100.00;100174.59;3973182;88;44599;-75
2021/12/13 22:55:22;;;;;;;137.88;62.60;;;;;;;-1.08;100.00;100189.41;3983466;88;44599;-75
2021/12/13 23:01:32;;;;;;;141.95;64.35;;;;;;;-1.03;100.00;100183.28;3979113;88;44654;-78
2021/12/13 23:07:35;;;;;;;143.40;61.02;;;;;;;-0.99;100.00;100188.66;3959786;88;44621;-77
2021/12/13 23:13:53;;;;;;;144.43;60.28;;;;;;;-0.95;100.00;100173.40;3960816;88;44445;-76
2021/12/13 23:19:50;;;;;;;147.30;62.98;;;;;;;-0.86;100.00;100191.11;3961545;88;28584;-77
2021/12/13 23:25:53;;;;;;;131.00;58.45;;;;;;;-0.82;100.00;100178.97;3959696;88;43241;-78
2021/12/13 23:31:59;;;;;;;133.37;59.40;;;;;;;-0.92;100.00;100184.19;3962305;88;28507;-78
2021/12/13 23:38:07;;;;;;;;;;;;;;;-0.78;100.00;100183.02;3989685;88;28583;-78
2021/12/13 23:50:27;;;;;;;140.65;63.17;;;;;;;-0.73;100.00;100183.01;3984405;88;44594;-79
2021/12/13 23:56:34;;;;;;;142.05;62.90;;;;;;;-0.71;100.00;100184.18;4001032;88;44649;-73
